Lowell, Illinois
Current Conditions -  °F | °C
As of 10:35 AM on Thursday 23 Oct 2014 (Local Time) from KVYS Reporting Station
Clear Clear  
Wind Chill: 55°   Ceiling: Unl
Heat Index: 55°   Visibility: 10mi
Dew Point: 43°   Wind: 14mph
Humidity: 64%   Direction: 200°SSW
Pressure: 30.21"   Gusts: NA
Location:  41.2206°N, 89.0553°W
Report Text: KVYS 231535Z AUTO 20012KT 10SM CLR 13/06 A3021 RMK AO2 T01260059
Loading
Personal Weather Stations






























Interactive Weather Map
Tropical Storm Tracking
New forecast layout! Learn more

10-Day Weather Forecast

Advertisements
Track Severe Weather on mobile